Time;durP1;ratioP1;P1;durP2;ratioP2;P2;SDS_P1;SDS_P2;PMS_P1;PMS_P2;Temp;Humidity;BMP_temperature;BMP_pressure;BME280_temperature;BME280_humidity;BME280_pressure;Samples;Min_cycle;Max_cycle;Signal;HPM_P1;HPM_P2
2023/09/18 00:01:08;;;;;;;12.88;7.88;;;;;;;17.73;100.00;100366.31;5014075;28;20049;-78
2023/09/18 00:03:34;;;;;;;11.43;8.35;;;;;;;17.72;100.00;100366.88;5015159;28;20489;-76
2023/09/18 00:06:01;;;;;;;10.13;8.23;;;;;;;17.71;100.00;100363.19;5016021;28;20021;-78
2023/09/18 00:08:26;;;;;;;12.13;7.85;;;;;;;17.70;100.00;100369.50;5016888;28;20206;-80
2023/09/18 00:10:54;;;;;;;11.27;8.32;;;;;;;17.67;100.00;100367.72;5016900;28;20057;-79
2023/09/18 00:13:21;;;;;;;10.75;8.45;;;;;;;17.61;100.00;100353.31;4998798;28;20061;-79
2023/09/18 00:15:48;;;;;;;15.80;8.43;;;;;;;17.59;100.00;100363.84;5015117;28;20475;-81
2023/09/18 00:18:16;;;;;;;11.35;8.88;;;;;;;17.55;100.00;100357.56;5016268;28;20363;-79
2023/09/18 00:20:42;;;;;;;12.07;8.93;;;;;;;17.53;100.00;100355.25;5015113;28;20042;-80
2023/09/18 00:23:09;;;;;;;10.75;9.18;;;;;;;17.51;100.00;100357.88;5016035;28;20152;-77
2023/09/18 00:25:34;;;;;;;13.00;9.10;;;;;;;17.49;100.00;100360.50;5014882;28;20041;-81
2023/09/18 00:28:00;;;;;;;10.68;8.10;;;;;;;17.49;100.00;100354.72;5014554;28;20026;-80
2023/09/18 00:30:25;;;;;;;10.68;8.18;;;;;;;17.47;100.00;100353.72;5015954;28;20462;-79
2023/09/18 00:32:52;;;;;;;11.88;8.55;;;;;;;17.43;100.00;100359.78;5015935;28;20040;-80
2023/09/18 00:35:17;;;;;;;11.18;8.25;;;;;;;17.40;100.00;100346.38;5015989;28;20056;-79
2023/09/18 00:37:43;;;;;;;13.35;9.52;;;;;;;17.38;100.00;100346.16;5014617;28;20471;-80
2023/09/18 00:40:10;;;;;;;12.80;9.45;;;;;;;17.35;100.00;100353.78;5015963;28;20022;-79
2023/09/18 00:42:36;;;;;;;10.82;9.20;;;;;;;17.31;100.00;100358.31;5015669;28;20033;-79
2023/09/18 00:45:03;;;;;;;11.77;9.48;;;;;;;17.26;100.00;100359.91;5014329;28;20038;-79
2023/09/18 00:47:28;;;;;;;12.18;9.77;;;;;;;17.25;100.00;100366.22;5015437;28;20049;-79
2023/09/18 00:50:09;;;;;;;10.88;8.95;;;;;;;17.21;100.00;100360.75;5014646;28;20033;-80
2023/09/18 00:52:35;;;;;;;12.50;9.52;;;;;;;17.16;100.00;100355.00;5015471;28;20026;-79
2023/09/18 00:55:01;;;;;;;14.75;9.70;;;;;;;17.12;100.00;100352.44;5015435;28;20113;-80
2023/09/18 00:57:28;;;;;;;13.38;9.52;;;;;;;17.07;100.00;100350.38;5015395;28;20470;-80
2023/09/18 00:59:54;;;;;;;13.18;9.32;;;;;;;17.03;100.00;100352.78;5013773;28;20078;-80
2023/09/18 01:02:34;;;;;;;11.07;9.65;;;;;;;16.98;100.00;100353.59;5014328;28;20029;-80
2023/09/18 01:05:01;;;;;;;12.93;9.45;;;;;;;16.95;100.00;100357.53;5015478;28;20026;-81
2023/09/18 01:07:28;;;;;;;15.88;9.13;;;;;;;16.94;100.00;100353.88;5014053;28;20099;-79
2023/09/18 01:09:54;;;;;;;12.02;9.43;;;;;;;16.92;100.00;100362.28;5015162;28;20538;-80
2023/09/18 01:12:45;;;;;;;13.27;9.55;;;;;;;16.91;100.00;100359.94;5015312;28;20038;-81
2023/09/18 01:15:25;;;;;;;14.60;9.98;;;;;;;16.90;100.00;100353.38;5014490;28;20034;-81
2023/09/18 01:17:52;;;;;;;15.88;9.77;;;;;;;16.88;100.00;100353.16;4998086;28;20117;-80
2023/09/18 01:20:19;;;;;;;12.35;9.63;;;;;;;16.86;100.00;100340.56;4997501;28;20395;-79
2023/09/18 01:22:46;;;;;;;12.68;10.07;;;;;;;16.85;100.00;100341.88;5014859;28;20104;-80
2023/09/18 01:25:11;;;;;;;16.80;10.00;;;;;;;16.85;100.00;100341.88;5014182;28;20044;-80
2023/09/18 01:27:38;;;;;;;13.95;10.55;;;;;;;16.83;100.00;100344.53;5013009;28;20113;-79
2023/09/18 01:30:15;;;;;;;12.50;9.30;;;;;;;16.81;100.00;100332.72;5013760;28;20430;-80
2023/09/18 01:32:41;;;;;;;13.35;9.50;;;;;;;16.77;100.00;100321.47;5013796;28;20340;-81
2023/09/18 01:35:08;;;;;;;15.95;9.52;;;;;;;16.78;100.00;100325.94;5012798;28;20114;-80
2023/09/18 01:37:40;;;;;;;11.40;9.18;;;;;;;16.78;100.00;100325.16;5014273;28;20037;-81
2023/09/18 01:40:23;;;;;;;11.82;9.07;;;;;;;16.79;100.00;100327.50;5014182;28;20028;-80
2023/09/18 01:42:50;;;;;;;14.55;10.23;;;;;;;16.76;100.00;100314.13;5012192;28;20104;-80
2023/09/18 01:45:18;;;;;;;12.55;9.60;;;;;;;16.77;100.00;100314.91;5013765;28;20033;-79
2023/09/18 01:47:44;;;;;;;12.18;9.20;;;;;;;16.77;100.00;100318.59;5013470;28;20034;-80
2023/09/18 01:50:13;;;;;;;12.60;9.35;;;;;;;16.78;100.00;100314.38;5013490;28;20026;-79
2023/09/18 01:52:44;;;;;;;14.07;9.73;;;;;;;16.77;100.00;100318.59;5013817;28;20044;-81
2023/09/18 01:55:15;;;;;;;18.25;10.27;;;;;;;16.76;100.00;100322.00;5013509;28;20115;-79
2023/09/18 01:57:42;;;;;;;11.30;9.05;;;;;;;16.73;100.00;100320.97;5014655;28;20382;-81
2023/09/18 02:00:11;;;;;;;15.10;10.27;;;;;;;16.70;100.00;100312.63;5010486;28;20046;-81
2023/09/18 02:02:38;;;;;;;12.60;10.07;;;;;;;16.70;100.00;100319.16;5014950;28;20062;-79
2023/09/18 02:05:06;;;;;;;14.23;10.13;;;;;;;16.70;100.00;100310.50;5014725;28;20364;-81
2023/09/18 02:07:32;;;;;;;13.10;10.00;;;;;;;16.65;100.00;100308.44;5014860;28;20044;-80
2023/09/18 02:09:58;;;;;;;11.70;10.02;;;;;;;16.66;100.00;100309.22;5014354;28;20061;-81
2023/09/18 02:12:25;;;;;;;14.60;10.90;;;;;;;16.64;100.00;100306.88;5014268;28;20069;-81
2023/09/18 02:14:52;;;;;;;13.15;10.07;;;;;;;16.62;100.00;100305.84;5014463;28;20040;-80
2023/09/18 02:17:17;;;;;;;13.20;9.68;;;;;;;16.61;100.00;100310.81;5014543;28;20029;-80
2023/09/18 02:19:43;;;;;;;11.88;10.13;;;;;;;16.59;100.00;100301.16;5013925;28;20034;-80
2023/09/18 02:22:09;;;;;;;14.73;11.13;;;;;;;16.61;100.00;100307.16;5014630;28;20088;-80
2023/09/18 02:24:34;;;;;;;12.32;10.30;;;;;;;16.61;100.00;100299.28;5014242;28;20037;-80
2023/09/18 02:27:00;;;;;;;14.52;11.27;;;;;;;16.62;100.00;100297.19;5013003;28;20069;-80
2023/09/18 02:29:26;;;;;;;12.23;10.15;;;;;;;16.62;100.00;100312.41;5012297;28;20042;-79
2023/09/18 02:31:53;;;;;;;16.60;10.43;;;;;;;16.61;100.00;100305.06;5013827;28;20399;-78
2023/09/18 02:34:19;;;;;;;15.43;10.40;;;;;;;16.62;100.00;100311.59;5014160;28;20049;-79
2023/09/18 02:36:45;;;;;;;15.23;10.88;;;;;;;16.62;100.00;100311.59;5013236;28;20032;-79
2023/09/18 02:39:11;;;;;;;12.65;10.25;;;;;;;16.61;100.00;100310.81;5013821;28;20470;-78
2023/09/18 02:41:36;;;;;;;14.85;9.95;;;;;;;16.51;100.00;100295.91;5013807;28;20386;-80
2023/09/18 02:44:03;;;;;;;16.52;9.18;;;;;;;16.61;100.00;100310.03;5013931;28;20449;-80
2023/09/18 02:46:29;;;;;;;13.50;10.23;;;;;;;16.59;100.00;100304.81;5012214;28;20034;-79
2023/09/18 02:48:56;;;;;;;17.00;11.00;;;;;;;16.63;100.00;100298.75;4996074;28;20092;-79
2023/09/18 02:51:23;;;;;;;17.45;11.02;;;;;;;16.64;100.00;100306.88;5014103;28;20029;-80
2023/09/18 02:53:49;;;;;;;13.55;10.23;;;;;;;16.62;100.00;100295.09;5013992;28;20073;-79
2023/09/18 02:56:16;;;;;;;15.00;10.80;;;;;;;16.61;100.00;100305.06;5012648;28;20069;-80
2023/09/18 02:58:42;;;;;;;14.95;10.35;;;;;;;16.52;100.00;100305.34;5013487;28;20048;-79
2023/09/18 03:01:08;;;;;;;20.55;10.65;;;;;;;16.55;100.00;100310.06;5013661;28;20029;-80
2023/09/18 03:03:35;;;;;;;15.32;10.75;;;;;;;16.53;100.00;100301.16;5013642;28;20108;-79
2023/09/18 03:06:04;;;;;;;12.15;10.35;;;;;;;16.49;100.00;100301.44;5014037;28;20100;-80
2023/09/18 03:08:32;;;;;;;18.02;11.20;;;;;;;16.48;100.00;100297.00;5014189;28;20434;-80
2023/09/18 03:10:59;;;;;;;12.85;9.98;;;;;;;16.47;100.00;100304.06;5015605;28;20337;-79
2023/09/18 03:13:27;;;;;;;17.52;11.75;;;;;;;16.47;100.00;100303.28;5016453;28;20030;-80
2023/09/18 03:15:53;;;;;;;13.13;10.38;;;;;;;16.46;100.00;100295.94;5016874;28;20133;-80
2023/09/18 03:18:18;;;;;;;16.48;10.15;;;;;;;16.43;100.00;100294.94;5017931;28;20501;-78
2023/09/18 03:20:45;;;;;;;17.30;11.20;;;;;;;16.41;100.00;100291.78;5017683;28;20053;-80
2023/09/18 03:23:10;;;;;;;16.13;10.95;;;;;;;16.41;100.00;100291.00;5015989;28;20034;-80
2023/09/18 03:25:37;;;;;;;15.18;11.50;;;;;;;16.40;100.00;100303.88;5016063;28;20381;-80
2023/09/18 03:28:04;;;;;;;14.25;10.80;;;;;;;16.39;100.00;100285.78;5017148;28;20041;-79
2023/09/18 03:30:30;;;;;;;12.77;10.63;;;;;;;16.37;100.00;100287.63;4999588;28;20021;-79
2023/09/18 03:32:56;;;;;;;15.45;10.40;;;;;;;16.35;100.00;100279.50;5016956;28;20466;-79
2023/09/18 03:35:21;;;;;;;15.30;10.77;;;;;;;16.32;100.00;100279.78;5016596;28;20048;-79
2023/09/18 03:37:56;;;;;;;13.57;10.38;;;;;;;16.32;100.00;100276.91;5017206;28;20037;-80
2023/09/18 03:40:23;;;;;;;13.27;10.38;;;;;;;16.28;100.00;100271.44;5016831;28;20060;-79
2023/09/18 03:42:48;;;;;;;12.55;10.70;;;;;;;16.27;100.00;100271.94;5015523;28;20033;-79
2023/09/18 03:45:17;;;;;;;13.15;10.60;;;;;;;16.27;100.00;100266.19;5016978;28;20030;-79
2023/09/18 03:47:43;;;;;;;15.52;9.95;;;;;;;16.28;100.00;100259.88;5015650;28;20038;-79
2023/09/18 03:50:09;;;;;;;16.55;10.80;;;;;;;16.30;100.00;100270.91;5015446;28;20160;-78
2023/09/18 03:52:37;;;;;;;14.32;10.10;;;;;;;16.28;100.00;100268.53;4999066;28;20034;-79
2023/09/18 03:55:05;;;;;;;13.98;11.18;;;;;;;16.30;100.00;100260.16;5015535;28;20493;-79
2023/09/18 03:57:32;;;;;;;17.63;11.10;;;;;;;16.29;100.00;100249.94;5016915;28;20104;-80
2023/09/18 03:59:58;;;;;;;13.57;10.73;;;;;;;16.32;100.00;100253.81;5016226;28;20068;-80
2023/09/18 04:02:32;;;;;;;14.55;10.70;;;;;;;16.34;100.00;100257.75;5016391;28;20060;-79
2023/09/18 04:04:59;;;;;;;15.63;10.93;;;;;;;16.33;100.00;100246.75;5015215;28;20029;-80
2023/09/18 04:07:24;;;;;;;18.15;11.13;;;;;;;16.33;100.00;100246.75;5016685;28;20382;-79
2023/09/18 04:09:51;;;;;;;19.13;11.00;;;;;;;16.32;100.00;100245.19;5015011;28;20459;-81
2023/09/18 04:12:16;;;;;;;19.42;11.85;;;;;;;16.31;100.00;100244.38;5016226;28;20033;-81
2023/09/18 04:14:42;;;;;;;22.27;11.80;;;;;;;16.29;100.00;100240.50;4998763;28;20121;-79
2023/09/18 04:17:08;;;;;;;23.20;11.98;;;;;;;16.29;100.00;100249.13;4998671;28;20034;-80
2023/09/18 04:19:35;;;;;;;20.75;12.65;;;;;;;16.26;100.00;100242.31;5014852;28;20038;-79
2023/09/18 04:22:01;;;;;;;16.25;12.32;;;;;;;16.23;100.00;100246.28;5015749;28;20029;-80
2023/09/18 04:24:27;;;;;;;14.48;11.80;;;;;;;16.22;100.00;100241.84;5015874;28;20378;-79
2023/09/18 04:26:55;;;;;;;16.00;11.93;;;;;;;16.22;100.00;100233.19;5016003;28;20451;-80
2023/09/18 04:29:22;;;;;;;17.10;12.15;;;;;;;16.22;100.00;100232.41;5015982;28;20517;-80
2023/09/18 04:31:48;;;;;;;14.88;11.50;;;;;;;16.25;100.00;100235.03;5016372;28;20026;-77
2023/09/18 04:34:14;;;;;;;15.82;11.93;;;;;;;16.27;100.00;100240.22;5015249;28;20052;-79
2023/09/18 04:36:43;;;;;;;15.35;11.30;;;;;;;16.27;100.00;100222.94;5014842;28;20030;-78
2023/09/18 04:39:10;;;;;;;16.13;11.98;;;;;;;16.21;100.00;100207.75;5015806;28;20036;-80
2023/09/18 04:41:36;;;;;;;17.10;12.65;;;;;;;16.26;100.00;100222.13;5016265;28;20041;-79
2023/09/18 04:44:05;;;;;;;16.83;12.07;;;;;;;16.26;100.00;100218.47;5015950;28;20048;-76
2023/09/18 04:46:36;;;;;;;16.60;12.15;;;;;;;16.25;100.00;100223.47;5015924;28;20057;-78
2023/09/18 04:49:03;;;;;;;20.92;12.80;;;;;;;16.26;100.00;100227.13;5014136;28;20176;-78
2023/09/18 04:51:32;;;;;;;12.60;10.13;;;;;;;16.24;100.00;100226.88;5015719;28;20026;-78
2023/09/18 04:53:59;;;;;;;15.73;12.80;;;;;;;16.29;100.00;100228.97;5014575;28;20434;-78
2023/09/18 04:56:26;;;;;;;21.65;12.55;;;;;;;16.30;100.00;100225.53;5015751;28;20042;-79
2023/09/18 04:58:57;;;;;;;24.05;12.05;;;;;;;16.35;100.00;100221.81;5014264;28;20046;-77
2023/09/18 05:01:32;;;;;;;18.92;12.00;;;;;;;16.39;100.00;100222.31;5015607;28;20034;-79
2023/09/18 05:03:57;;;;;;;14.10;10.98;;;;;;;16.43;100.00;100227.78;5015664;28;20029;-80
2023/09/18 05:06:23;;;;;;;17.05;11.52;;;;;;;16.46;100.00;100220.94;5014044;28;20493;-77
2023/09/18 05:08:48;;;;;;;19.95;11.30;;;;;;;16.45;100.00;100222.28;5015025;28;20095;-78
2023/09/18 05:11:15;;;;;;;18.15;11.27;;;;;;;16.45;100.00;100219.41;5002774;28;20049;-78
2023/09/18 05:13:43;;;;;;;15.85;11.85;;;;;;;16.51;100.00;100220.91;5014784;28;20044;-79
2023/09/18 05:16:09;;;;;;;18.27;11.80;;;;;;;16.57;100.00;100220.91;5013926;28;20044;-76
2023/09/18 05:18:37;;;;;;;16.13;11.85;;;;;;;16.61;100.00;100209.84;5014141;28;20129;-81
2023/09/18 05:21:04;;;;;;;18.85;10.88;;;;;;;16.66;100.00;100209.00;5015300;28;20149;-82
2023/09/18 05:23:31;;;;;;;16.58;11.20;;;;;;;16.69;100.00;100207.94;5015714;28;20026;-80
2023/09/18 05:25:57;;;;;;;18.63;11.60;;;;;;;16.74;100.00;100200.56;5013695;28;20081;-78
2023/09/18 05:28:23;;;;;;;15.18;10.85;;;;;;;16.74;100.00;100200.56;4997543;28;20084;-81
2023/09/18 05:30:49;;;;;;;18.85;12.02;;;;;;;16.81;100.00;100199.94;5014836;28;20417;-79
2023/09/18 05:33:17;;;;;;;18.05;11.98;;;;;;;16.84;100.00;100198.88;5014582;28;20042;-79
2023/09/18 05:35:44;;;;;;;14.95;11.73;;;;;;;16.87;100.00;100197.81;5012579;28;20402;-80
2023/09/18 05:38:13;;;;;;;14.32;11.32;;;;;;;16.91;100.00;100195.41;5014643;28;20498;-79
2023/09/18 05:40:40;;;;;;;17.77;11.90;;;;;;;16.95;100.00;100192.97;5013229;28;20042;-77
2023/09/18 05:43:08;;;;;;;18.33;11.82;;;;;;;17.04;100.00;100188.97;5014138;28;20033;-79
2023/09/18 05:45:34;;;;;;;16.90;12.07;;;;;;;17.11;100.00;100183.38;5014580;28;20029;-78
2023/09/18 05:48:03;;;;;;;19.05;13.10;;;;;;;17.18;100.00;100190.66;5014747;28;20068;-78
2023/09/18 05:50:41;;;;;;;15.13;10.55;;;;;;;17.11;100.00;100165.25;5013026;28;20025;-79
2023/09/18 05:53:12;;;;;;;18.08;11.00;;;;;;;17.37;100.00;100183.59;5013137;28;20036;-78
2023/09/18 05:55:39;;;;;;;15.85;11.98;;;;;;;17.35;100.00;100171.00;5014594;28;20026;-76
2023/09/18 05:58:08;;;;;;;17.35;11.95;;;;;;;17.59;100.00;100193.31;5014926;28;20038;-77
2023/09/18 06:00:34;;;;;;;14.10;11.13;;;;;;;17.68;100.00;100164.06;5014272;28;20124;-78
2023/09/18 06:03:00;;;;;;;14.18;10.88;;;;;;;18.28;100.00;100181.81;5012308;28;20034;-79
2023/09/18 06:05:27;;;;;;;16.13;9.88;;;;;;;19.08;100.00;100175.69;5013953;28;20088;-78
2023/09/18 06:07:53;;;;;;;12.30;8.60;;;;;;;20.08;100.00;100164.16;5012540;28;20026;-78
2023/09/18 06:10:21;;;;;;;11.05;8.20;;;;;;;21.05;100.00;100147.41;5012633;28;20101;-77
2023/09/18 06:12:46;;;;;;;13.60;8.23;;;;;;;21.93;100.00;100143.25;5014200;28;20033;-76
2023/09/18 06:15:14;;;;;;;12.32;8.50;;;;;;;22.96;100.00;100140.91;5014306;28;20022;-77
2023/09/18 06:17:49;;;;;;;15.27;8.40;;;;;;;24.06;100.00;100132.97;5014056;28;20033;-78
2023/09/18 06:20:21;;;;;;;9.88;7.85;;;;;;;25.06;100.00;100125.03;5013820;28;20037;-79
2023/09/18 06:22:48;;;;;;;11.75;7.63;;;;;;;25.76;100.00;100127.38;5014286;28;20030;-78
2023/09/18 06:25:14;;;;;;;9.38;7.10;;;;;;;26.44;100.00;100113.16;5013964;28;20083;-78
2023/09/18 06:27:42;;;;;;;14.00;7.75;;;;;;;27.15;100.00;100116.66;5013654;28;20479;-77
2023/09/18 06:30:10;;;;;;;9.90;7.07;;;;;;;27.70;100.00;100112.06;5012352;28;20065;-79
2023/09/18 06:32:39;;;;;;;11.23;7.18;;;;;;;28.09;100.00;100089.28;5012006;28;20120;-78
2023/09/18 06:35:08;;;;;;;10.00;7.43;;;;;;;28.62;100.00;100105.69;5013644;28;20038;-78
2023/09/18 06:37:33;;;;;;;16.48;8.00;;;;;;;29.00;100.00;100108.41;5013566;28;20113;-78
2023/09/18 06:40:02;;;;;;;7.82;6.88;;;;;;;29.25;100.00;100102.06;5013608;28;20157;-79
2023/09/18 06:42:28;;;;;;;53.35;12.18;;;;;;;29.42;100.00;100098.06;5013480;28;20032;-81
2023/09/18 06:44:56;;;;;;;15.70;7.38;;;;;;;29.68;100.00;100093.97;5012384;28;20431;-77
2023/09/18 06:47:21;;;;;;;10.93;6.90;;;;;;;30.02;100.00;100092.56;5015521;28;20022;-76
2023/09/18 06:49:51;;;;;;;9.57;6.85;;;;;;;30.05;100.00;100083.22;4982843;28;20510;-77
2023/09/18 06:52:17;;;;;;;;;;;;;;;30.04;100.00;100096.41;5016974;28;20076;-80
2023/09/18 06:54:45;;;;;;;7.93;7.13;;;;;;;30.06;100.00;100099.50;5016352;28;19917;-78
2023/09/18 06:57:12;;;;;;;8.50;6.38;;;;;;;30.20;100.00;100098.91;5016203;28;20403;-79
2023/09/18 06:59:44;;;;;;;8.18;6.75;;;;;;;30.33;100.00;100095.31;5016342;28;20045;-78
2023/09/18 07:02:10;;;;;;;8.88;7.30;;;;;;;30.46;100.00;100092.53;5016589;28;20471;-77
2023/09/18 07:04:36;;;;;;;8.43;7.15;;;;;;;30.63;100.00;100090.59;5016039;28;20072;-76
2023/09/18 07:07:04;;;;;;;7.00;6.30;;;;;;;30.76;100.00;100095.91;5017578;28;20068;-78
2023/09/18 07:09:31;;;;;;;10.45;6.45;;;;;;;30.77;100.00;100089.34;5017629;28;20024;-79
2023/09/18 07:12:00;;;;;;;8.05;6.65;;;;;;;30.85;100.00;100095.78;5017466;28;20112;-77
2023/09/18 07:14:25;;;;;;;10.02;7.47;;;;;;;30.80;100.00;100088.06;5016049;28;20029;-81
2023/09/18 07:16:52;;;;;;;8.93;7.00;;;;;;;30.75;100.00;100092.19;5017049;28;20021;-78
2023/09/18 07:19:18;;;;;;;8.82;7.43;;;;;;;30.58;100.00;100084.44;5017396;28;20463;-77
2023/09/18 07:21:45;;;;;;;9.80;7.55;;;;;;;30.36;100.00;100085.22;5017279;28;20029;-77
2023/09/18 07:24:16;;;;;;;17.23;7.80;;;;;;;30.30;100.00;100082.66;5017117;28;20068;-78
2023/09/18 07:26:47;;;;;;;11.27;8.38;;;;;;;30.42;100.00;100086.34;5017314;28;20029;-77
2023/09/18 07:29:16;;;;;;;;;;;;;;;30.56;100.00;100074.72;5016177;28;20439;-79
2023/09/18 07:31:45;;;;;;;8.07;6.93;;;;;;;30.78;100.00;100073.19;5016402;28;19971;-79
2023/09/18 07:34:11;;;;;;;10.43;8.30;;;;;;;31.01;100.00;100069.41;5017250;28;20022;-78
2023/09/18 07:36:45;;;;;;;9.27;6.95;;;;;;;31.17;100.00;100075.56;5015769;28;20033;-78
2023/09/18 07:39:15;;;;;;;10.05;7.22;;;;;;;31.31;100.00;100065.38;5016770;28;20084;-77
2023/09/18 07:41:41;;;;;;;9.18;7.00;;;;;;;31.48;100.00;100064.19;5015515;28;20080;-78
2023/09/18 07:44:06;;;;;;;8.18;6.88;;;;;;;31.47;100.00;100064.81;5016918;28;20026;-77
2023/09/18 07:46:33;;;;;;;8.30;7.05;;;;;;;31.51;100.00;100077.66;5016492;28;20022;-74
2023/09/18 07:48:59;;;;;;;8.93;7.25;;;;;;;31.54;100.00;100069.69;5015675;28;20475;-77
2023/09/18 07:51:26;;;;;;;10.55;6.78;;;;;;;31.47;100.00;100068.53;5015358;28;20021;-78
2023/09/18 07:53:51;;;;;;;9.50;7.18;;;;;;;31.37;100.00;100068.72;5016785;28;20029;-77
2023/09/18 07:56:18;;;;;;;12.73;7.70;;;;;;;31.30;100.00;100074.91;5016674;28;20096;-78
2023/09/18 07:58:44;;;;;;;13.18;7.90;;;;;;;31.16;100.00;100062.22;4997655;28;20127;-78
2023/09/18 08:01:10;;;;;;;9.63;7.53;;;;;;;30.99;100.00;100070.06;5016581;28;20419;-77
2023/09/18 08:03:36;;;;;;;9.13;7.47;;;;;;;30.84;100.00;100052.13;5016567;28;20025;-76
2023/09/18 08:06:01;;;;;;;8.82;7.22;;;;;;;30.82;100.00;100060.84;5016162;28;20034;-77
2023/09/18 08:08:30;;;;;;;8.57;7.65;;;;;;;30.81;100.00;100060.06;5015024;28;20041;-75
2023/09/18 08:10:56;;;;;;;12.00;8.43;;;;;;;30.74;100.00;100061.13;5016185;28;20368;-78
2023/09/18 08:13:24;;;;;;;8.95;8.05;;;;;;;30.50;100.00;100044.81;5016176;28;20042;-77
2023/09/18 08:15:51;;;;;;;12.82;8.52;;;;;;;30.39;100.00;100046.34;5016417;28;20092;-77
2023/09/18 08:18:16;;;;;;;11.15;8.88;;;;;;;30.30;100.00;100034.69;5014910;28;20383;-78
2023/09/18 08:20:45;;;;;;;8.63;7.75;;;;;;;30.28;100.00;100031.59;5014961;28;20018;-77
2023/09/18 08:23:12;;;;;;;11.43;8.35;;;;;;;30.27;100.00;100027.88;5018662;28;20041;-77
2023/09/18 08:25:38;;;;;;;10.32;8.00;;;;;;;30.23;100.00;100027.63;5034260;28;20347;-80
2023/09/18 08:28:04;;;;;;;9.93;8.80;;;;;;;30.22;100.00;100022.38;5035808;28;20048;-78
2023/09/18 08:30:30;;;;;;;8.80;7.65;;;;;;;30.26;100.00;100022.63;5034991;28;20029;-77
2023/09/18 08:32:57;;;;;;;12.27;8.15;;;;;;;30.31;100.00;100021.50;5035530;28;20033;-79
2023/09/18 08:35:22;;;;;;;11.35;7.97;;;;;;;30.22;100.00;100010.59;5038704;28;20028;-79
2023/09/18 08:37:49;;;;;;;12.02;8.32;;;;;;;30.21;100.00;99998.03;5043363;28;20109;-80
2023/09/18 08:40:15;;;;;;;13.93;9.00;;;;;;;30.32;100.00;100008.25;5035902;28;20100;-78
2023/09/18 08:42:45;;;;;;;11.80;9.25;;;;;;;30.36;100.00;99997.50;5036843;28;20063;-77
2023/09/18 08:45:21;;;;;;;10.95;9.48;;;;;;;30.52;100.00;100001.47;5035252;28;20033;-76
2023/09/18 08:47:46;;;;;;;13.73;8.02;;;;;;;30.56;100.00;100003.91;5034238;28;20032;-76
2023/09/18 08:50:12;;;;;;;12.68;8.75;;;;;;;30.51;100.00;99991.06;5034997;28;20025;-78
2023/09/18 08:52:47;;;;;;;10.07;8.45;;;;;;;30.48;100.00;99982.75;5033962;28;20017;-75
2023/09/18 08:55:14;;;;;;;12.52;8.77;;;;;;;30.40;100.00;99991.88;5033692;28;20541;-76
2023/09/18 08:57:41;;;;;;;22.73;9.68;;;;;;;30.34;100.00;99982.63;5033678;28;20018;-78
2023/09/18 09:00:11;;;;;;;14.45;8.98;;;;;;;30.32;100.00;99987.63;5031481;28;20038;-76
2023/09/18 09:02:38;;;;;;;11.15;9.27;;;;;;;30.35;100.00;99981.22;5034410;28;20099;-77
2023/09/18 09:05:05;;;;;;;11.93;9.02;;;;;;;30.38;100.00;99976.97;5021528;28;20490;-82
2023/09/18 09:07:31;;;;;;;12.32;9.05;;;;;;;30.37;100.00;99978.38;5020696;28;20041;-77
2023/09/18 09:09:57;;;;;;;12.65;9.40;;;;;;;30.35;100.00;99978.28;5014248;28;20037;-78
2023/09/18 09:12:48;;;;;;;12.98;8.95;;;;;;;30.35;100.00;99981.22;5029026;28;20535;-78
2023/09/18 09:15:15;;;;;;;15.10;8.68;;;;;;;30.30;100.00;99976.47;5019240;28;20064;-76
2023/09/18 09:17:42;;;;;;;12.02;8.82;;;;;;;30.30;100.00;99984.56;5012939;28;20123;-78
2023/09/18 09:20:14;;;;;;;14.07;9.82;;;;;;;30.28;100.00;99973.41;5029321;28;20030;-78
2023/09/18 09:22:41;;;;;;;12.32;9.75;;;;;;;30.20;100.00;99975.84;5013835;28;20134;-79
2023/09/18 09:25:26;;;;;;;11.75;9.30;;;;;;;30.13;100.00;99965.06;5014070;28;20493;-77
2023/09/18 09:27:53;;;;;;;13.27;8.80;;;;;;;30.07;100.00;99955.81;5013819;28;20037;-77
2023/09/18 09:30:23;;;;;;;11.65;8.93;;;;;;;30.20;100.00;99960.31;5012452;28;20422;-81
2023/09/18 09:32:51;;;;;;;12.27;9.60;;;;;;;30.22;100.00;99954.56;4996557;28;20057;-77
2023/09/18 09:35:22;;;;;;;11.82;8.93;;;;;;;30.20;100.00;99943.41;5029489;28;20033;-78
2023/09/18 09:37:51;;;;;;;13.88;8.80;;;;;;;30.21;100.00;99959.69;5013218;28;20033;-81
2023/09/18 09:40:19;;;;;;;12.20;9.25;;;;;;;30.15;100.00;99941.63;5014498;28;20030;-77
2023/09/18 09:42:45;;;;;;;10.23;8.32;;;;;;;30.12;100.00;99948.78;5014720;28;20042;-81
2023/09/18 09:45:12;;;;;;;12.82;9.38;;;;;;;30.05;100.00;99941.72;5042336;28;20025;-77
2023/09/18 09:47:38;;;;;;;12.88;9.00;;;;;;;29.99;100.00;99943.50;5032217;28;20079;-76
2023/09/18 09:50:13;;;;;;;12.63;8.80;;;;;;;29.99;100.00;99937.59;5033291;28;20486;-78
2023/09/18 09:52:49;;;;;;;11.35;9.02;;;;;;;29.97;100.00;99928.66;5034037;28;20034;-76
2023/09/18 09:55:22;;;;;;;15.00;9.93;;;;;;;29.96;100.00;99933.00;5033602;28;20029;-76
2023/09/18 09:57:49;;;;;;;11.82;9.43;;;;;;;29.98;100.00;99927.22;5032834;28;20034;-77
2023/09/18 10:00:27;;;;;;;12.13;8.77;;;;;;;30.01;100.00;99935.56;5048461;28;20049;-78
2023/09/18 10:03:03;;;;;;;8.40;7.55;;;;;;;29.99;100.00;99934.66;5033229;28;20033;-81
2023/09/18 10:05:31;;;;;;;12.43;8.50;;;;;;;29.88;100.00;99926.56;5033144;28;20021;-78
2023/09/18 10:08:05;;;;;;;9.45;8.05;;;;;;;29.79;100.00;99918.63;5033342;28;20029;-79
2023/09/18 10:10:33;;;;;;;10.48;8.50;;;;;;;29.74;100.00;99911.72;5031657;28;20021;-78
2023/09/18 10:13:05;;;;;;;9.88;8.38;;;;;;;29.71;100.00;99922.63;5031816;28;20060;-77
2023/09/18 10:15:34;;;;;;;21.50;8.80;;;;;;;29.71;100.00;99910.06;5031733;28;20116;-78
2023/09/18 10:18:00;;;;;;;12.60;8.27;;;;;;;29.71;100.00;99904.16;5048381;28;20057;-79
2023/09/18 10:20:26;;;;;;;14.05;9.23;;;;;;;29.66;100.00;99909.03;5014590;28;20483;-78
2023/09/18 10:22:57;;;;;;;13.20;9.27;;;;;;;29.61;100.00;99906.47;5048673;28;20025;-80
2023/09/18 10:25:31;;;;;;;11.87;8.50;;;;;;;29.64;100.00;99916.94;5048797;28;20025;-82
2023/09/18 10:28:02;;;;;;;10.68;8.27;;;;;;;29.57;100.00;99912.09;5048053;28;20040;-80
2023/09/18 10:30:29;;;;;;;10.57;8.18;;;;;;;29.51;100.00;99914.59;5031224;28;20050;-76
2023/09/18 10:33:01;;;;;;;12.82;8.68;;;;;;;29.39;100.00;99908.69;5030904;28;20482;-75
2023/09/18 10:35:26;;;;;;;14.95;8.95;;;;;;;29.32;100.00;99897.94;5031121;28;20028;-79
2023/09/18 10:37:54;;;;;;;12.90;8.43;;;;;;;29.28;100.00;99901.34;5031084;28;20104;-80
2023/09/18 10:40:21;;;;;;;10.68;8.60;;;;;;;29.28;100.00;99906.50;5031621;28;20109;-77
2023/09/18 10:42:48;;;;;;;12.98;8.68;;;;;;;29.27;100.00;99904.97;5031169;28;20112;-77
2023/09/18 10:45:17;;;;;;;15.05;8.82;;;;;;;29.21;100.00;99901.59;5030631;28;20025;-77
2023/09/18 10:47:49;;;;;;;13.57;8.88;;;;;;;29.15;100.00;99904.91;5032314;28;20268;-76
2023/09/18 10:50:26;;;;;;;10.40;7.95;;;;;;;29.11;100.00;99909.75;5031426;28;20083;-78
2023/09/18 10:52:51;;;;;;;9.70;8.15;;;;;;;29.01;100.00;99906.13;5032603;28;20502;-78
2023/09/18 10:55:26;;;;;;;9.13;7.95;;;;;;;28.99;100.00;99897.13;5032080;28;20041;-78
2023/09/18 10:57:56;;;;;;;17.15;8.65;;;;;;;28.95;100.00;99906.47;5032235;28;20497;-78
2023/09/18 11:00:25;;;;;;;13.05;8.25;;;;;;;28.90;100.00;99889.94;5031819;28;20460;-75
2023/09/18 11:03:09;;;;;;;13.48;8.68;;;;;;;28.79;100.00;99875.94;5031737;28;20026;-77
2023/09/18 11:05:35;;;;;;;11.20;8.05;;;;;;;28.76;100.00;99901.53;5033187;28;20029;-76
2023/09/18 11:08:33;;;;;;;18.50;8.65;;;;;;;28.68;100.00;99879.63;5015222;28;20030;-76
2023/09/18 11:11:16;;;;;;;16.73;8.63;;;;;;;28.62;100.00;99876.28;5033005;28;20075;-76
2023/09/18 11:13:45;;;;;;;11.52;8.75;;;;;;;28.56;100.00;99884.69;5031709;28;20037;-75